Time;durP1;ratioP1;P1;durP2;ratioP2;P2;SDS_P1;SDS_P2;PMS_P1;PMS_P2;Temp;Humidity;BMP_temperature;BMP_pressure;BME280_temperature;BME280_humidity;BME280_pressure;Samples;Min_cycle;Max_cycle;Signal;HPM_P1;HPM_P2
2022/07/08 00:00:08;;;;;;;;;1.00;1.00;;;;;20.69;46.61;102758.22;5030992;28;45544;-83
2022/07/08 00:02:34;;;;;;;;;1.75;1.75;;;;;20.30;46.60;102688.09;5016549;28;45557;-83
2022/07/08 00:05:31;;;;;;;;;0.75;0.75;;;;;19.68;46.62;102596.63;5017137;28;45305;-83
2022/07/08 00:07:57;;;;;;;;;1.00;1.00;;;;;20.77;46.36;102779.53;5009030;28;45440;-83
2022/07/08 00:10:23;;;;;;;;;1.25;1.00;;;;;20.35;46.49;102719.41;5017469;28;45468;-83
2022/07/08 00:12:48;;;;;;;;;2.75;2.00;;;;;20.13;46.22;102694.41;5027078;28;47970;-84
2022/07/08 00:15:14;;;;;;;;;0.25;0.25;;;;;20.32;46.77;102716.88;5037205;28;45392;-83
2022/07/08 00:17:39;;;;;;;;;0.50;0.50;;;;;20.25;46.74;102704.56;5036471;28;45421;-82
2022/07/08 00:20:06;;;;;;;;;3.00;1.00;;;;;20.61;46.43;102776.75;5037362;28;45378;-83
2022/07/08 00:22:32;;;;;;;;;3.25;1.75;;;;;20.37;46.56;102728.31;5036755;28;47434;-83
2022/07/08 00:24:57;;;;;;;;;1.33;1.33;;;;;20.39;46.29;102739.94;5018804;28;45607;-83
2022/07/08 00:27:23;;;;;;;;;1.00;1.00;;;;;20.54;46.53;102775.31;5018760;28;45555;-83
2022/07/08 00:29:48;;;;;;;;;3.00;2.00;;;;;20.52;46.60;102777.22;5037080;28;45321;-84
2022/07/08 00:32:22;;;;;;;;;1.00;1.00;;;;;20.51;47.04;102767.31;5035807;28;45884;-83
2022/07/08 00:34:47;;;;;;;;;2.00;1.00;;;;;20.46;46.70;102759.44;5036407;28;45302;-83
2022/07/08 00:37:13;;;;;;;;;3.25;1.00;;;;;20.21;46.50;102720.13;5036958;28;45425;-83
2022/07/08 00:42:25;;;;;;;;;1.33;1.00;;;;;20.43;46.95;102763.19;5036631;28;45690;-83
2022/07/08 00:44:50;;;;;;;;;3.33;2.00;;;;;19.96;46.54;102684.47;5036615;28;45462;-83
2022/07/08 00:47:15;;;;;;;;;1.67;1.00;;;;;19.52;46.53;102617.28;5036066;28;45813;-83
2022/07/08 00:49:41;;;;;;;;;2.00;2.00;;;;;20.01;47.15;102694.09;5005425;28;45338;-83
2022/07/08 00:52:07;;;;;;;;;1.00;1.00;;;;;20.37;46.55;102762.63;5018925;28;45413;-83
2022/07/08 00:54:33;;;;;;;;;1.67;1.67;;;;;20.36;46.90;102772.59;5020072;28;45463;-83
2022/07/08 00:57:00;;;;;;;;;1.00;1.00;;;;;19.94;47.01;102713.44;5019915;28;45440;-83
2022/07/08 00:59:27;;;;;;;;;0.67;0.67;;;;;20.31;46.57;102780.09;5020087;28;45440;-83
2022/07/08 01:01:52;;;;;;;;;1.67;1.67;;;;;19.64;46.80;102669.88;5019646;28;46475;-83
2022/07/08 01:04:17;;;;;;;;;1.00;1.00;;;;;19.79;46.65;102705.16;5019864;28;45346;-83
2022/07/08 01:06:43;;;;;;;;;2.00;1.00;;;;;20.24;46.65;102784.94;5002094;28;45459;-83
2022/07/08 01:09:10;;;;;;;;;1.67;1.67;;;;;20.23;46.80;102782.34;5020116;28;45469;-83
2022/07/08 01:11:36;;;;;;;;;1.00;1.00;;;;;19.16;46.82;102604.69;4984377;28;45660;-83
2022/07/08 01:14:01;;;;;;;;;1.00;1.00;;;;;20.02;46.88;102774.38;5019871;28;45424;-83
2022/07/08 01:16:27;;;;;;;;;1.00;1.00;;;;;20.12;46.89;102790.13;5019557;28;45392;-83
2022/07/08 01:18:52;;;;;;;;;1.00;1.00;;;;;20.00;46.66;102775.41;5019856;28;45415;-84
2022/07/08 01:21:18;;;;;;;;;0.67;0.67;;;;;20.10;46.52;102802.88;5019486;28;46059;-83
2022/07/08 01:23:43;;;;;;;;;1.00;1.00;;;;;19.98;46.87;102786.28;5001175;28;45373;-83
2022/07/08 01:26:11;;;;;;;;;1.00;1.00;;;;;19.99;46.42;102798.00;5002488;28;45386;-83
2022/07/08 01:28:38;;;;;;;;;1.00;1.00;;;;;20.04;46.92;102814.88;5233188;22;47912;-83
2022/07/08 01:31:04;;;;;;;;;0.00;0.00;;;;;19.98;47.06;102812.50;5038991;28;46632;-83
2022/07/08 01:33:29;;;;;;;;;1.00;1.00;;;;;19.84;47.26;102810.47;5023764;28;45444;-83
2022/07/08 01:35:54;;;;;;;;;2.00;0.00;;;;;19.51;47.22;102746.22;5019675;28;45475;-83
2022/07/08 01:38:20;;;;;;;;;1.33;0.00;;;;;19.58;46.41;102763.91;5019774;28;45444;-83
2022/07/08 01:40:46;;;;;;;;;1.00;1.00;;;;;19.87;47.02;102831.97;5019214;28;45395;-83
2022/07/08 01:43:12;;;;;;;;;1.33;1.33;;;;;19.84;46.82;102826.72;5019624;28;45378;-83
2022/07/08 01:45:37;;;;;;;;;2.00;1.00;;;;;19.46;47.17;102769.06;5018905;28;45368;-83
2022/07/08 01:48:03;;;;;;;;;1.00;1.00;;;;;19.39;46.49;102758.53;5019584;28;45447;-83
2022/07/08 01:50:28;;;;;;;;;5.00;1.00;;;;;19.65;46.42;102806.91;5039231;28;46489;-83
2022/07/08 01:52:54;;;;;;;;;1.33;1.33;;;;;19.54;46.18;102792.06;5038936;28;45401;-83
2022/07/08 01:55:20;;;;;;;;;1.33;0.00;;;;;19.67;46.32;102807.72;5039473;28;45355;-83
2022/07/08 01:57:45;;;;;;;;;2.00;0.33;;;;;19.75;46.29;102822.63;5039365;28;45502;-83
2022/07/08 02:00:11;;;;;;;;;0.00;0.00;;;;;19.27;46.46;102737.50;5020598;28;47067;-83
2022/07/08 02:03:14;;;;;;;;;0.00;0.00;;;;;18.94;46.41;102684.13;5020870;28;45458;-83
2022/07/08 02:05:39;;;;;;;;;2.00;2.00;;;;;18.93;46.45;102685.06;5020935;28;45337;-83
2022/07/08 02:08:05;;;;;;;;;1.00;1.00;;;;;19.67;46.72;102811.28;5039318;28;45366;-82
2022/07/08 02:12:18;;;;;;;;;4.00;1.00;;;;;19.24;46.61;102734.06;5038806;28;47402;-83
2022/07/08 02:14:03;;;;;;;;;2.00;1.00;;;;;18.52;46.84;102627.59;5037889;28;45387;-83
2022/07/08 02:16:51;;;;;;;;;0.00;0.00;;;;;19.66;46.78;102814.91;5029781;28;45257;-83
2022/07/08 02:19:17;;;;;;;;;0.00;0.00;;;;;18.65;46.80;102653.03;5039273;28;45503;-83
2022/07/08 02:21:42;;;;;;;;;2.00;1.00;;;;;19.61;47.08;102807.03;5038527;28;46260;-83
2022/07/08 02:24:07;;;;;;;;;3.00;1.00;;;;;19.38;47.11;102775.69;5038658;28;45576;-83
2022/07/08 02:26:33;;;;;;;;;1.00;1.00;;;;;19.60;47.21;102801.72;5038686;28;45473;-82
2022/07/08 02:28:58;;;;;;;;;2.00;2.00;;;;;19.09;47.14;102716.75;5038283;28;45483;-83
2022/07/08 02:31:24;;;;;;;;;1.00;1.00;;;;;19.43;47.45;102775.47;5024333;28;46179;-83
2022/07/08 02:33:49;;;;;;;;;0.00;0.00;;;;;19.56;47.29;102805.53;5000655;28;45893;-83
2022/07/08 02:36:15;;;;;;;;;2.33;0.67;;;;;19.57;47.67;102808.16;5018627;28;45357;-83
2022/07/08 02:38:40;;;;;;;;;0.00;0.00;;;;;19.39;47.58;102779.28;5000967;28;45671;-83
2022/07/08 02:41:05;;;;;;;;;1.00;1.00;;;;;19.29;47.83;102762.66;5018501;28;46379;-83
2022/07/08 02:43:31;;;;;;;;;1.25;1.00;;;;;19.47;47.84;102800.56;5018285;28;45437;-83
2022/07/08 02:45:56;;;;;;;;;1.00;1.00;;;;;19.45;47.68;102794.34;5018290;28;45449;-83
2022/07/08 02:48:21;;;;;;;;;1.00;1.00;;;;;19.09;47.76;102741.97;5021103;28;45457;-83
2022/07/08 02:50:47;;;;;;;;;1.25;1.25;;;;;19.02;48.04;102731.53;5038165;28;46499;-83
2022/07/08 02:53:12;;;;;;;;;2.00;1.00;;;;;19.45;48.04;102799.75;5020356;28;45330;-83
2022/07/08 02:55:37;;;;;;;;;1.00;1.00;;;;;19.17;47.84;102760.50;5038317;28;45373;-83
2022/07/08 02:58:03;;;;;;;;;1.00;1.00;;;;;19.18;48.19;102759.56;5038011;28;45301;-82
2022/07/08 03:00:28;;;;;;;;;2.00;2.00;;;;;19.19;47.94;102781.09;5037817;28;45492;-83
2022/07/08 03:02:53;;;;;;;;;0.50;0.50;;;;;19.00;47.99;102750.50;5038231;28;45353;-83
2022/07/08 03:05:19;;;;;;;;;2.50;1.00;;;;;19.09;48.14;102768.13;5037827;28;45296;-83
2022/07/08 03:07:44;;;;;;;;;1.25;0.00;;;;;18.85;47.71;102725.09;5038573;28;45461;-83
2022/07/08 03:10:09;;;;;;;;;1.33;1.33;;;;;19.09;48.54;102774.41;5037619;28;46019;-83
2022/07/08 03:12:35;;;;;;;;;4.67;1.00;;;;;19.30;48.57;102829.28;5037475;28;45537;-83
2022/07/08 03:15:00;;;;;;;;;2.33;1.00;;;;;19.27;48.46;102821.31;5035849;28;45440;-83
2022/07/08 03:17:25;;;;;;;;;3.67;1.00;;;;;19.22;48.65;102817.94;5038178;28;45588;-83
2022/07/08 03:19:51;;;;;;;;;1.67;0.67;;;;;18.52;48.13;102695.97;5037845;28;45368;-83
2022/07/08 03:22:19;;;;;;;;;1.00;1.00;;;;;19.24;48.37;102826.84;5037668;28;45464;-83
2022/07/08 03:24:44;;;;;;;;;1.00;1.00;;;;;18.67;48.39;102732.19;5037768;28;45387;-82
2022/07/08 03:27:09;;;;;;;;;1.33;1.33;;;;;19.18;48.75;102830.72;5037456;28;45473;-83
2022/07/08 03:29:35;;;;;;;;;1.00;1.00;;;;;19.15;48.61;102841.69;5037746;28;47454;-83
2022/07/08 03:32:00;;;;;;;;;1.67;1.67;;;;;19.14;49.10;102842.63;5018094;28;45317;-83
2022/07/08 03:34:27;;;;;;;;;1.33;1.33;;;;;18.62;49.17;102754.97;5017802;28;45484;-83
2022/07/08 03:36:53;;;;;;;;;1.00;0.33;;;;;18.86;49.11;102802.47;5018177;28;45422;-83
2022/07/08 03:39:18;;;;;;;;;1.33;1.00;;;;;19.10;48.99;102851.81;4999675;28;46285;-83
2022/07/08 03:41:43;;;;;;;;;0.67;0.67;;;;;18.89;49.06;102807.75;4999562;28;45223;-83
2022/07/08 03:44:09;;;;;;;;;3.33;0.33;;;;;18.74;49.19;102789.50;5017433;28;45351;-83
2022/07/08 03:46:34;;;;;;;;;1.00;1.00;;;;;19.03;49.37;102842.25;5017576;28;45311;-83
2022/07/08 03:48:59;;;;;;;;;2.67;1.33;;;;;19.06;49.21;102844.81;5024918;28;45362;-83
2022/07/08 03:51:25;;;;;;;;;3.00;2.00;;;;;18.90;49.21;102823.03;5037478;28;45511;-83
2022/07/08 03:53:50;;;;;;;;;1.00;0.00;;;;;18.86;49.12;102823.22;5037543;28;45372;-83
2022/07/08 03:56:15;;;;;;;;;2.00;2.00;;;;;18.84;49.29;102817.00;5037347;28;45599;-83
2022/07/08 03:58:41;;;;;;;;;1.00;1.00;;;;;18.97;49.41;102856.06;5037045;28;45419;-83
2022/07/08 04:01:06;;;;;;;;;1.33;1.33;;;;;18.94;49.81;102850.75;5037086;28;45336;-83
2022/07/08 04:03:32;;;;;;;;;0.33;0.33;;;;;18.36;49.45;102757.00;5037287;28;45414;-83
2022/07/08 04:05:57;;;;;;;;;3.00;2.00;;;;;18.82;49.61;102827.88;5037686;28;45378;-83
2022/07/08 04:08:23;;;;;;;;;1.25;1.00;;;;;18.62;49.60;102806.28;5034486;28;46665;-83
2022/07/08 04:10:48;;;;;;;;;3.67;1.00;;;;;18.84;49.83;102858.41;5027263;28;45479;-83
2022/07/08 04:13:14;;;;;;;;;5.00;1.00;;;;;18.33;49.91;102763.41;5017224;28;45479;-83
2022/07/08 04:15:39;;;;;;;;;1.33;1.33;;;;;18.62;49.67;102815.25;5028752;28;45437;-83
2022/07/08 04:18:05;;;;;;;;;1.33;1.00;;;;;18.38;49.94;102781.22;5036678;28;45423;-83
2022/07/08 04:20:30;;;;;;;;;2.00;1.00;;;;;18.21;49.79;102747.75;5018899;28;45365;-83
2022/07/08 04:22:55;;;;;;;;;1.00;1.00;;;;;18.37;49.98;102774.06;5037008;28;45329;-83
2022/07/08 04:25:21;;;;;;;;;1.00;1.00;;;;;18.69;50.07;102814.03;5038228;28;45419;-83
2022/07/08 04:27:46;;;;;;;;;3.00;1.00;;;;;18.58;50.09;102805.53;5029326;28;46147;-82
2022/07/08 04:30:11;;;;;;;;;2.67;1.00;;;;;18.74;50.16;102825.50;5019958;28;45506;-83
2022/07/08 04:32:37;;;;;;;;;1.00;1.00;;;;;18.41;49.82;102773.00;5020528;28;45351;-83
2022/07/08 04:35:03;;;;;;;;;1.67;1.67;;;;;18.82;49.96;102845.94;5020758;28;45396;-83
2022/07/08 04:37:29;;;;;;;;;2.67;1.00;;;;;18.77;49.67;102844.28;5020154;28;47350;-83
2022/07/08 04:39:55;;;;;;;;;1.00;1.00;;;;;18.86;50.00;102859.22;5019879;28;45278;-83
2022/07/08 04:42:20;;;;;;;;;1.00;1.00;;;;;18.59;49.89;102811.78;5020533;28;45489;-83
2022/07/08 04:44:46;;;;;;;;;2.00;1.00;;;;;18.87;49.70;102873.59;5020677;28;45389;-83
2022/07/08 04:47:11;;;;;;;;;1.00;1.00;;;;;18.78;50.05;102861.41;5019693;28;47387;-83
2022/07/08 04:49:36;;;;;;;;;1.67;1.67;;;;;18.84;50.06;102871.06;5020187;28;45406;-83
2022/07/08 04:52:02;;;;;;;;;1.67;1.67;;;;;18.87;50.28;102888.03;5020149;28;45395;-83
2022/07/08 04:54:27;;;;;;;;;1.67;1.67;;;;;18.85;49.87;102879.09;5020293;28;45553;-82
2022/07/08 04:56:53;;;;;;;;;1.00;1.00;;;;;18.73;49.78;102861.56;5020344;28;46162;-82
2022/07/08 04:59:18;;;;;;;;;2.33;1.33;;;;;18.47;50.16;102818.63;5039859;28;45389;-83
2022/07/08 05:01:44;;;;;;;;;2.00;2.00;;;;;18.81;50.17;102879.31;5040131;28;45384;-83
2022/07/08 05:04:09;;;;;;;;;1.67;0.67;;;;;18.73;50.32;102874.19;5012464;28;45463;-83
2022/07/08 05:06:34;;;;;;;;;3.00;2.00;;;;;18.75;49.85;102872.31;5019819;28;46625;-83
2022/07/08 05:09:00;;;;;;;;;5.00;1.67;;;;;18.67;49.99;102859.13;5019452;28;45635;-83
2022/07/08 05:11:25;;;;;;;;;1.00;1.00;;;;;18.83;50.29;102889.09;5019686;28;45430;-83
2022/07/08 05:13:51;;;;;;;;;2.33;1.67;;;;;18.86;50.26;102888.09;5020322;28;45479;-83
2022/07/08 05:16:16;;;;;;;;;1.33;0.33;;;;;18.65;49.88;102858.31;5019494;28;46386;-83
2022/07/08 05:18:41;;;;;;;;;1.00;1.00;;;;;18.42;50.34;102823.34;5019588;28;45296;-82
2022/07/08 05:21:07;;;;;;;;;5.00;3.00;;;;;18.80;49.98;102878.44;5019802;28;45342;-82
2022/07/08 05:23:32;;;;;;;;;1.67;1.67;;;;;18.62;50.07;102838.69;5020003;28;45571;-82
2022/07/08 05:25:58;;;;;;;;;2.00;2.00;;;;;18.23;49.80;102771.97;5001561;28;47979;-83
2022/07/08 05:28:23;;;;;;;;;4.33;3.00;;;;;18.97;49.75;102892.06;5019417;28;45353;-82
2022/07/08 05:30:49;;;;;;;;;3.00;1.67;;;;;18.97;50.11;102894.75;5019500;28;45325;-82
2022/07/08 05:33:14;;;;;;;;;1.67;1.67;;;;;18.75;49.66;102847.97;5019882;28;45266;-82
2022/07/08 05:35:39;;;;;;;;;2.00;2.00;;;;;18.94;50.13;102876.00;5018762;28;45351;-83
2022/07/08 05:38:05;;;;;;;;;1.00;1.00;;;;;18.82;49.88;102854.03;5018932;28;45437;-82
2022/07/08 05:40:30;;;;;;;;;2.00;2.00;;;;;18.74;49.50;102844.41;5001204;28;45385;-82
2022/07/08 05:42:55;;;;;;;;;0.67;0.67;;;;;19.03;49.27;102882.78;5036774;28;45361;-84
2022/07/08 05:45:21;;;;;;;;;1.67;1.67;;;;;18.53;49.79;102794.06;5036999;28;45428;-82
2022/07/08 05:47:46;;;;;;;;;4.33;2.00;;;;;19.08;49.56;102887.97;5036475;28;45436;-82
2022/07/08 05:50:11;;;;;;;;;2.00;2.00;;;;;19.06;49.78;102882.66;5035215;28;45861;-82
2022/07/08 05:52:37;;;;;;;;;3.00;2.00;;;;;18.98;49.24;102863.19;5022798;28;45412;-82
2022/07/08 05:55:02;;;;;;;;;4.67;3.00;;;;;19.21;49.42;102891.88;5036217;28;45850;-81
2022/07/08 05:57:28;;;;;;;;;2.00;1.00;;;;;19.23;49.34;102895.41;5037902;28;45416;-81
2022/07/08 05:59:53;;;;;;;;;2.00;2.00;;;;;18.98;50.28;102846.97;5028736;28;45577;-81
2022/07/08 06:02:19;;;;;;;;;2.00;2.00;;;;;19.30;49.16;102888.78;5006028;28;45508;-80
2022/07/08 06:04:44;;;;;;;;;3.00;1.00;;;;;19.35;49.84;102894.84;5034154;28;46223;-84
2022/07/08 06:07:12;;;;;;;;;3.33;2.00;;;;;19.37;49.49;102889.38;5039101;28;45549;-83
2022/07/08 06:09:37;;;;;;;;;4.33;3.00;;;;;19.32;49.25;102876.06;5038740;28;45455;-83
2022/07/08 06:12:04;;;;;;;;;2.00;2.00;;;;;19.54;49.24;102897.56;5032371;28;45602;-85
2022/07/08 06:14:30;;;;;;;;;4.33;3.00;;;;;19.30;48.58;102844.63;5038015;28;45734;-85
2022/07/08 06:16:55;;;;;;;;;5.00;2.33;;;;;19.08;48.52;102807.78;5035821;28;45932;-85
2022/07/08 06:19:20;;;;;;;;;4.00;2.00;;;;;18.98;48.80;102776.72;5032816;28;45539;-85
2022/07/08 06:21:46;;;;;;;;;2.00;2.00;;;;;18.99;48.85;102775.78;5001169;28;45461;-85
2022/07/08 06:24:11;;;;;;;;;2.00;1.33;;;;;19.02;48.18;102778.34;5027772;28;46292;-85
2022/07/08 06:26:37;;;;;;;;;0.25;0.25;;;;;19.81;47.96;102905.34;5033231;28;45369;-84
2022/07/08 06:29:03;;;;;;;;;2.00;2.00;;;;;19.15;48.39;102793.03;5037209;28;45500;-84
2022/07/08 06:31:28;;;;;;;;;2.33;2.33;;;;;19.18;48.07;102794.72;5038625;28;45382;-84
2022/07/08 06:33:56;;;;;;;;;1.00;1.00;;;;;19.71;48.15;102879.66;5032845;28;46197;-84
2022/07/08 06:37:02;;;;;;;;;1.00;1.00;;;;;19.98;47.75;102926.19;5027226;28;45401;-85
2022/07/08 06:39:28;;;;;;;;;2.00;2.00;;;;;20.04;47.93;102931.28;5017930;28;45336;-84
2022/07/08 06:41:53;;;;;;;;;3.33;3.33;;;;;19.29;47.70;102796.88;4995341;28;45674;-84
2022/07/08 06:44:21;;;;;;;;;5.00;1.67;;;;;20.13;47.29;102916.41;5018117;28;45555;-85
2022/07/08 06:46:47;;;;;;;;;2.00;2.00;;;;;19.61;46.94;102827.81;5025421;28;45505;-85
2022/07/08 06:49:12;;;;;;;;;0.00;0.00;;;;;19.70;46.84;102837.34;5016936;28;45424;-85
2022/07/08 06:51:38;;;;;;;;;2.67;1.67;;;;;19.56;46.94;102798.28;5031734;28;45456;-85
2022/07/08 06:56:47;;;;;;;;;5.00;3.00;;;;;19.44;46.05;102752.91;5038300;28;45526;-85
2022/07/08 06:59:12;;;;;;;;;1.67;1.67;;;;;20.44;45.57;102913.94;5019821;28;45491;-85
2022/07/08 07:01:37;;;;;;;;;5.00;2.33;;;;;20.43;46.52;102905.88;5020574;28;45452;-84
2022/07/08 07:04:03;;;;;;;;;2.33;2.33;;;;;20.53;45.73;102918.00;5017515;28;45427;-83
2022/07/08 07:06:29;;;;;;;;;2.67;2.33;;;;;20.57;45.93;102921.47;5018013;28;45440;-85
2022/07/08 07:08:54;;;;;;;;;2.33;2.33;;;;;20.41;45.33;102888.81;5027158;28;45514;-85
2022/07/08 07:11:19;;;;;;;;;2.25;2.25;;;;;20.49;45.22;102886.63;5025622;28;45445;-85
2022/07/08 07:13:47;;;;;;;;;2.00;2.00;;;;;20.69;44.95;102903.69;5029719;28;46496;-85
2022/07/08 07:16:13;;;;;;;;;1.75;1.75;;;;;19.81;44.97;102740.28;5017832;28;45267;-84
2022/07/08 07:38:56;;;;;;;;;5.00;3.00;;;;;20.78;45.32;102901.38;5131492;27;45443;-83
2022/07/08 07:41:21;;;;;;;;;2.00;1.00;;;;;20.98;44.07;102896.75;5114679;27;45488;-83
2022/07/08 07:43:47;;;;;;;;;3.33;1.00;;;;;21.04;44.28;102891.84;5134718;27;53310;-83
2022/07/08 07:46:13;;;;;;;;;1.00;1.00;;;;;21.04;44.32;102874.72;5129413;27;45482;-83
2022/07/08 07:48:39;;;;;;;;;3.67;3.67;;;;;21.13;44.29;102885.06;5119899;27;45555;-84
2022/07/08 07:51:04;;;;;;;;;0.33;0.33;;;;;21.42;43.72;102915.19;5097388;27;45469;-84
2022/07/08 07:53:30;;;;;;;;;16.33;12.67;;;;;21.45;43.56;102905.06;5118968;27;45324;-84
2022/07/08 07:55:57;;;;;;;;;3.33;3.33;;;;;21.57;43.19;102908.06;5127871;27;45421;-84
2022/07/08 07:58:23;;;;;;;;;1.00;1.00;;;;;21.41;44.02;102872.75;5123933;27;46190;-83
2022/07/08 08:00:49;;;;;;;;;1.33;1.33;;;;;21.73;43.06;102916.19;5123049;27;45457;-84
2022/07/08 08:03:14;;;;;;;;;1.00;1.00;;;;;21.69;43.93;102900.06;5115246;27;45303;-83
2022/07/08 08:05:39;;;;;;;;;2.00;2.00;;;;;21.68;43.46;102886.59;5119170;27;45734;-83
2022/07/08 08:08:05;;;;;;;;;2.00;2.00;;;;;21.90;42.72;102910.69;5132357;27;46324;-83
2022/07/08 08:10:31;;;;;;;;;5.33;5.33;;;;;21.78;42.53;102876.97;5133444;27;45699;-83
2022/07/08 08:12:56;;;;;;;;;2.33;2.00;;;;;21.96;42.83;102898.59;5127199;27;45468;-83
2022/07/08 08:15:29;;;;;;;;;2.00;1.33;;;;;21.81;42.01;102882.22;5126215;27;45489;-83
2022/07/08 08:17:56;;;;;;;;;2.00;2.00;;;;;21.85;42.60;102877.50;5113407;27;47282;-83
2022/07/08 08:20:24;;;;;;;;;4.67;3.00;;;;;22.09;42.40;102907.78;5114941;27;45386;-84
2022/07/08 08:22:50;;;;;;;;;2.67;2.67;;;;;22.13;42.10;102907.53;5128679;27;45339;-83
2022/07/08 08:25:17;;;;;;;;;2.00;1.00;;;;;22.13;41.52;102902.09;5118605;27;45559;-83
2022/07/08 08:27:42;;;;;;;;;2.67;2.67;;;;;22.16;41.60;102892.00;5112331;27;45323;-83
2022/07/08 08:30:09;;;;;;;;;5.00;3.00;;;;;22.31;41.35;102902.91;5112610;27;45390;-83
2022/07/08 08:32:34;;;;;;;;;4.00;2.33;;;;;22.43;41.17;102909.44;5114334;27;45523;-83
2022/07/08 08:35:00;;;;;;;;;6.00;3.00;;;;;22.07;40.50;102841.81;5133729;27;45278;-83
2022/07/08 08:37:25;;;;;;;;;6.00;3.00;;;;;22.46;41.40;102892.94;5115939;27;45425;-84
2022/07/08 08:39:51;;;;;;;;;3.67;2.33;;;;;22.73;40.74;102904.00;5099751;27;45556;-84
2022/07/08 08:42:19;;;;;;;;;3.00;2.67;;;;;22.93;40.17;102894.59;5115902;27;45333;-84
2022/07/08 08:44:44;;;;;;;;;2.33;2.33;;;;;23.17;38.78;102858.72;5120026;27;45638;-84
2022/07/08 08:47:13;;;;;;;;;3.67;3.00;;;;;23.51;38.58;102887.38;5121251;27;46076;-84
2022/07/08 08:49:39;;;;;;;;;4.00;4.00;;;;;23.73;38.31;102895.00;5109264;27;45476;-84
2022/07/08 08:52:07;;;;;;;;;5.33;3.00;;;;;26.37;34.63;102869.97;5119106;27;45387;-85
2022/07/08 08:54:34;;;;;;;;;10.33;10.33;;;;;29.13;30.16;102873.66;5114123;27;45605;-85
2022/07/08 08:57:00;;;;;;;;;8.67;7.33;;;;;30.64;27.49;102824.78;5098050;27;45461;-87
2022/07/08 08:59:27;;;;;;;;;6.00;4.00;;;;;31.36;26.76;102860.09;5097307;27;45514;-87
2022/07/08 09:01:54;;;;;;;;;4.00;4.00;;;;;30.29;27.84;102851.06;5097351;27;45746;-86
2022/07/08 09:04:20;;;;;;;;;6.00;6.00;;;;;28.37;29.60;102807.97;5100770;27;45502;-87
2022/07/08 09:06:48;;;;;;;;;4.67;4.33;;;;;27.48;31.78;102792.72;5102048;27;46591;-87
2022/07/08 09:09:13;;;;;;;;;4.33;4.33;;;;;27.58;32.21;102856.72;5085879;27;45429;-87
2022/07/08 09:11:39;;;;;;;;;3.00;3.00;;;;;27.76;32.42;102854.31;5115973;27;46283;-87
2022/07/08 09:14:18;;;;;;;;;4.67;4.67;;;;;28.14;32.86;102851.13;5117658;27;45409;-87
2022/07/08 09:17:17;;;;;;;;;2.67;2.67;;;;;29.08;31.50;102853.06;5120579;27;46229;-87
2022/07/08 09:19:44;;;;;;;;;4.00;4.00;;;;;30.55;29.16;102805.56;5120629;27;45396;-87
2022/07/08 09:22:10;;;;;;;;;5.67;4.33;;;;;33.27;26.46;102802.59;5117162;27;45420;-85
2022/07/08 09:24:41;;;;;;;;;3.33;3.33;;;;;37.07;21.51;102840.50;5119353;27;45518;-86
2022/07/08 09:27:08;;;;;;;;;6.00;3.67;;;;;39.92;17.98;102825.44;5119295;27;46330;-87
2022/07/08 09:29:35;;;;;;;;;6.33;3.33;;;;;41.78;17.24;102825.03;5115948;27;45510;-87
2022/07/08 09:32:11;;;;;;;;;6.33;5.00;;;;;41.89;15.96;102843.91;5101799;27;45651;-86
2022/07/08 09:34:39;;;;;;;;;5.00;5.00;;;;;39.72;17.13;102805.84;5099660;27;45488;-87
2022/07/08 09:37:22;;;;;;;;;5.33;4.33;;;;;36.47;19.91;102694.22;5115748;27;46330;-88
2022/07/08 09:39:54;;;;;;;;;3.67;3.67;;;;;35.94;21.09;102699.78;5118824;27;45452;-88
2022/07/08 09:42:21;;;;;;;;;3.67;3.33;;;;;37.77;19.03;102693.44;5107748;27;45584;-87
2022/07/08 09:45:00;;;;;;;;;2.33;2.33;;;;;40.94;17.02;102770.94;5120565;27;45780;-87
2022/07/08 09:47:35;;;;;;;;;4.33;2.67;;;;;43.00;14.50;102695.50;5118344;27;46742;-86
2022/07/08 09:50:00;;;;;;;;;4.00;4.00;;;;;44.66;13.04;102709.47;5117525;27;46508;-87
2022/07/08 09:52:26;;;;;;;;;4.67;4.67;;;;;45.55;13.02;102715.72;5120352;27;45357;-87
2022/07/08 09:55:14;;;;;;;;;4.67;3.00;;;;;46.84;12.09;102840.75;5119306;27;45621;-87
2022/07/08 09:57:44;;;;;;;;;3.00;3.00;;;;;46.61;11.57;102723.28;5119311;27;46364;-87
2022/07/08 10:00:22;;;;;;;;;6.33;3.67;;;;;46.98;11.70;102743.25;5119974;27;45334;-87
2022/07/08 10:03:35;;;;;;;;;17.33;17.33;;;;;47.16;11.91;102727.94;5120019;27;45571;-91
2022/07/08 10:06:07;;;;;;;;;4.33;2.67;;;;;47.76;11.90;102788.13;5036145;28;45637;-89
2022/07/08 10:08:38;;;;;;;;;4.00;2.67;;;;;47.68;11.11;102783.84;5054000;22;46215;-90
2022/07/08 10:11:56;;;;;;;;;2.33;1.00;;;;;47.77;11.19;102863.34;5198407;22;45317;-90
2022/07/08 10:15:11;;;;;;;;;1.33;1.33;;;;;47.93;11.72;102873.72;5081115;22;45483;-89
2022/07/08 10:21:12;;;;;;;;;2.00;2.00;;;;;46.53;11.55;102705.72;5123496;22;46093;-88
2022/07/08 10:36:51;;;;;;;;;5.00;2.67;;;;;45.11;12.15;102822.44;5088343;27;45447;-90
2022/07/08 10:43:03;;;;;;;;;2.00;2.00;;;;;43.70;13.19;102711.72;5077056;27;45488;-88
2022/07/08 10:46:10;;;;;;;;;8.00;6.33;;;;;44.14;13.87;102819.09;5081038;27;46037;-87
2022/07/08 10:48:39;;;;;;;;;2.00;2.00;;;;;44.03;13.09;102826.41;5077657;27;45532;-85
2022/07/08 10:51:04;;;;;;;;;1.67;1.67;;;;;43.32;13.18;102743.84;5077784;27;45423;-86
2022/07/08 10:53:52;;;;;;;;;2.67;0.67;;;;;43.17;13.88;102749.84;5078482;27;45423;-86
2022/07/08 10:56:55;;;;;;;;;0.00;0.00;;;;;43.43;13.60;102826.41;5077135;28;46894;-86
2022/07/08 10:59:40;;;;;;;;;0.00;0.00;;;;;43.18;14.08;102807.72;5077581;27;45394;-86
2022/07/08 11:02:09;;;;;;;;;1.67;1.67;;;;;43.03;13.79;102800.81;5076901;27;45381;-86
2022/07/08 11:04:35;;;;;;;;;3.00;1.00;;;;;42.93;13.47;102821.84;5077900;27;45522;-86
2022/07/08 11:07:20;;;;;;;;;0.00;0.00;;;;;42.73;13.91;102808.03;5077849;27;46105;-86
2022/07/08 11:09:48;;;;;;;;;1.00;1.00;;;;;42.49;13.41;102784.56;5077591;27;45420;-85
2022/07/08 11:12:15;;;;;;;;;1.67;1.00;;;;;42.55;14.24;102806.06;5077431;27;45434;-85
2022/07/08 11:14:45;;;;;;;;;1.33;1.33;;;;;42.26;14.41;102813.22;5078240;27;45365;-86
2022/07/08 11:17:31;;;;;;;;;0.00;0.00;;;;;41.93;14.40;102814.34;5077563;27;46175;-85
2022/07/08 11:19:58;;;;;;;;;0.00;0.00;;;;;41.42;14.84;102809.72;5077674;27;45493;-85
2022/07/08 11:22:25;;;;;;;;;2.00;1.00;;;;;40.93;14.91;102803.66;5077737;27;45552;-86
2022/07/08 11:24:52;;;;;;;;;2.00;0.00;;;;;40.24;15.13;102767.84;5077776;27;45615;-85
2022/07/08 11:27:23;;;;;;;;;1.00;0.00;;;;;39.88;15.52;102778.41;5076248;28;48164;-86
2022/07/08 11:29:50;;;;;;;;;0.00;0.00;;;;;39.42;15.51;102770.75;5077565;27;45372;-86
2022/07/08 11:32:38;;;;;;;;;0.67;0.67;;;;;39.16;15.79;102802.22;5082410;27;45328;-92
2022/07/08 11:35:32;;;;;;;;;0.00;0.00;;;;;38.68;16.89;102790.13;5075174;27;45919;-88
2022/07/08 11:38:06;;;;;;;;;1.33;0.00;;;;;38.04;15.89;102741.00;5091811;27;45497;-87
2022/07/08 11:40:53;;;;;;;;;0.00;0.00;;;;;38.03;16.34;102795.00;5083145;27;45708;-86
2022/07/08 11:43:22;;;;;;;;;0.00;0.00;;;;;37.62;16.75;102779.78;5094055;27;45447;-85
2022/07/08 11:45:50;;;;;;;;;1.00;0.00;;;;;36.80;17.62;102677.16;5097452;27;45460;-88
2022/07/08 11:48:16;;;;;;;;;0.00;0.00;;;;;36.66;17.15;102715.88;5097170;27;45627;-86
2022/07/08 11:50:48;;;;;;;;;0.00;0.00;;;;;36.83;17.52;102783.28;5087703;27;45500;-84
2022/07/08 11:53:22;;;;;;;;;12.67;9.00;;;;;36.16;18.02;102711.94;5096861;27;45391;-84
2022/07/08 11:55:47;;;;;;;;;3.00;3.00;;;;;36.26;18.31;102786.63;5076621;27;45508;-83
2022/07/08 11:58:21;;;;;;;;;0.33;0.00;;;;;35.87;17.19;102773.75;5087875;27;47471;-83
2022/07/08 12:00:47;;;;;;;;;2.00;0.67;;;;;35.55;18.42;102777.63;5096864;27;45525;-83
2022/07/08 12:03:13;;;;;;;;;1.00;1.00;;;;;35.34;18.50;102784.66;5096192;27;51123;-83
2022/07/08 12:05:38;;;;;;;;;1.00;1.00;;;;;34.84;18.69;102749.88;5097021;27;45555;-83
2022/07/08 12:08:13;;;;;;;;;2.00;0.33;;;;;34.70;18.44;102770.00;5096238;27;46167;-82
2022/07/08 12:10:39;;;;;;;;;2.00;0.00;;;;;34.64;18.79;102778.00;5096880;27;45482;-82
2022/07/08 12:13:04;;;;;;;;;1.00;1.00;;;;;34.36;19.10;102751.72;5097362;27;45429;-82
2022/07/08 12:15:35;;;;;;;;;2.00;0.33;;;;;34.26;19.32;102772.16;5100813;27;45548;-82